sensor_id;sensor_type;location;lat;lon;timestamp;P1;durP1;ratioP1;P2;durP2;ratioP2
47872;SDS011;73966;47.438;18.912;2024-02-15T00:00:38;16.25;;;11.30;;
47872;SDS011;73966;47.438;18.912;2024-02-15T00:03:07;13.75;;;11.32;;
47872;SDS011;73966;47.438;18.912;2024-02-15T00:06:09;19.10;;;11.43;;
47872;SDS011;73966;47.438;18.912;2024-02-15T00:08:38;18.55;;;11.60;;
47872;SDS011;73966;47.438;18.912;2024-02-15T00:11:08;14.18;;;9.95;;
47872;SDS011;73966;47.438;18.912;2024-02-15T00:13:37;12.43;;;9.30;;
47872;SDS011;73966;47.438;18.912;2024-02-15T00:16:08;16.15;;;9.07;;
47872;SDS011;73966;47.438;18.912;2024-02-15T00:18:38;14.50;;;10.00;;
47872;SDS011;73966;47.438;18.912;2024-02-15T00:21:10;15.35;;;8.60;;
47872;SDS011;73966;47.438;18.912;2024-02-15T00:23:41;14.82;;;9.23;;
47872;SDS011;73966;47.438;18.912;2024-02-15T00:26:10;13.20;;;9.95;;
47872;SDS011;73966;47.438;18.912;2024-02-15T00:28:40;12.27;;;9.05;;
47872;SDS011;73966;47.438;18.912;2024-02-15T00:31:16;15.18;;;8.73;;
47872;SDS011;73966;47.438;18.912;2024-02-15T00:33:46;10.85;;;7.62;;
47872;SDS011;73966;47.438;18.912;2024-02-15T00:36:18;13.68;;;9.10;;
47872;SDS011;73966;47.438;18.912;2024-02-15T00:38:47;12.93;;;9.05;;
47872;SDS011;73966;47.438;18.912;2024-02-15T00:41:17;15.50;;;8.05;;
47872;SDS011;73966;47.438;18.912;2024-02-15T00:43:49;13.00;;;8.68;;
47872;SDS011;73966;47.438;18.912;2024-02-15T00:46:19;14.77;;;10.10;;
47872;SDS011;73966;47.438;18.912;2024-02-15T00:48:48;14.80;;;9.57;;
47872;SDS011;73966;47.438;18.912;2024-02-15T00:51:19;10.95;;;9.15;;
47872;SDS011;73966;47.438;18.912;2024-02-15T00:53:49;13.13;;;8.93;;
47872;SDS011;73966;47.438;18.912;2024-02-15T00:56:18;10.13;;;9.05;;
47872;SDS011;73966;47.438;18.912;2024-02-15T00:58:48;11.50;;;8.20;;
47872;SDS011;73966;47.438;18.912;2024-02-15T01:03:56;11.60;;;8.68;;
47872;SDS011;73966;47.438;18.912;2024-02-15T01:06:27;17.25;;;8.90;;
47872;SDS011;73966;47.438;18.912;2024-02-15T01:08:57;15.52;;;9.40;;
47872;SDS011;73966;47.438;18.912;2024-02-15T01:11:28;13.70;;;8.80;;
47872;SDS011;73966;47.438;18.912;2024-02-15T01:14:00;15.85;;;9.38;;
47872;SDS011;73966;47.438;18.912;2024-02-15T01:16:29;12.63;;;8.25;;
47872;SDS011;73966;47.438;18.912;2024-02-15T01:18:58;13.38;;;8.80;;
47872;SDS011;73966;47.438;18.912;2024-02-15T01:21:29;16.08;;;10.77;;
47872;SDS011;73966;47.438;18.912;2024-02-15T01:24:01;16.83;;;10.07;;
47872;SDS011;73966;47.438;18.912;2024-02-15T01:26:31;12.00;;;8.35;;
47872;SDS011;73966;47.438;18.912;2024-02-15T01:29:02;12.05;;;8.50;;
47872;SDS011;73966;47.438;18.912;2024-02-15T01:31:36;11.18;;;8.43;;
47872;SDS011;73966;47.438;18.912;2024-02-15T01:34:06;13.45;;;8.20;;
47872;SDS011;73966;47.438;18.912;2024-02-15T01:36:38;11.32;;;8.52;;
47872;SDS011;73966;47.438;18.912;2024-02-15T01:39:07;14.27;;;8.95;;
47872;SDS011;73966;47.438;18.912;2024-02-15T01:41:38;15.02;;;8.32;;
47872;SDS011;73966;47.438;18.912;2024-02-15T01:44:07;9.70;;;8.25;;
47872;SDS011;73966;47.438;18.912;2024-02-15T01:46:41;12.30;;;8.88;;
47872;SDS011;73966;47.438;18.912;2024-02-15T01:49:11;16.10;;;8.75;;
47872;SDS011;73966;47.438;18.912;2024-02-15T01:51:42;14.40;;;8.38;;
47872;SDS011;73966;47.438;18.912;2024-02-15T01:54:11;11.98;;;8.48;;
47872;SDS011;73966;47.438;18.912;2024-02-15T01:56:43;9.50;;;8.05;;
47872;SDS011;73966;47.438;18.912;2024-02-15T01:59:14;9.90;;;7.43;;
47872;SDS011;73966;47.438;18.912;2024-02-15T02:01:45;12.53;;;9.10;;
47872;SDS011;73966;47.438;18.912;2024-02-15T02:04:14;14.95;;;8.57;;
47872;SDS011;73966;47.438;18.912;2024-02-15T02:06:45;16.17;;;9.32;;
47872;SDS011;73966;47.438;18.912;2024-02-15T02:09:15;15.57;;;9.52;;
47872;SDS011;73966;47.438;18.912;2024-02-15T02:11:45;15.10;;;9.82;;
47872;SDS011;73966;47.438;18.912;2024-02-15T02:14:16;14.13;;;9.07;;
47872;SDS011;73966;47.438;18.912;2024-02-15T02:19:39;14.60;;;8.40;;
47872;SDS011;73966;47.438;18.912;2024-02-15T02:22:13;13.75;;;8.63;;
47872;SDS011;73966;47.438;18.912;2024-02-15T02:27:31;13.43;;;8.90;;
47872;SDS011;73966;47.438;18.912;2024-02-15T02:30:02;11.02;;;8.48;;
47872;SDS011;73966;47.438;18.912;2024-02-15T02:32:35;13.62;;;9.35;;
47872;SDS011;73966;47.438;18.912;2024-02-15T02:35:07;11.90;;;8.85;;
47872;SDS011;73966;47.438;18.912;2024-02-15T02:37:43;13.50;;;8.77;;
47872;SDS011;73966;47.438;18.912;2024-02-15T02:40:14;15.80;;;8.52;;
47872;SDS011;73966;47.438;18.912;2024-02-15T02:42:48;13.32;;;9.68;;
47872;SDS011;73966;47.438;18.912;2024-02-15T02:45:18;16.75;;;9.13;;
47872;SDS011;73966;47.438;18.912;2024-02-15T02:47:50;15.85;;;9.30;;
47872;SDS011;73966;47.438;18.912;2024-02-15T02:50:22;11.57;;;8.52;;
47872;SDS011;73966;47.438;18.912;2024-02-15T02:52:52;11.93;;;8.55;;
47872;SDS011;73966;47.438;18.912;2024-02-15T02:55:23;15.73;;;9.05;;
47872;SDS011;73966;47.438;18.912;2024-02-15T02:57:55;14.35;;;9.73;;
47872;SDS011;73966;47.438;18.912;2024-02-15T03:00:25;16.25;;;10.35;;
47872;SDS011;73966;47.438;18.912;2024-02-15T03:02:55;12.75;;;8.88;;
47872;SDS011;73966;47.438;18.912;2024-02-15T03:05:25;12.90;;;9.18;;
47872;SDS011;73966;47.438;18.912;2024-02-15T03:07:55;12.60;;;9.23;;
47872;SDS011;73966;47.438;18.912;2024-02-15T03:10:25;16.58;;;8.77;;
47872;SDS011;73966;47.438;18.912;2024-02-15T03:12:55;10.32;;;8.55;;
47872;SDS011;73966;47.438;18.912;2024-02-15T03:15:25;14.15;;;9.40;;
47872;SDS011;73966;47.438;18.912;2024-02-15T03:17:54;15.70;;;9.80;;
47872;SDS011;73966;47.438;18.912;2024-02-15T03:20:23;12.57;;;8.70;;
47872;SDS011;73966;47.438;18.912;2024-02-15T03:22:53;13.13;;;9.95;;
47872;SDS011;73966;47.438;18.912;2024-02-15T03:25:23;12.00;;;9.05;;
47872;SDS011;73966;47.438;18.912;2024-02-15T03:27:56;12.68;;;8.82;;
47872;SDS011;73966;47.438;18.912;2024-02-15T03:30:31;13.57;;;10.13;;
47872;SDS011;73966;47.438;18.912;2024-02-15T03:33:05;13.82;;;9.57;;
47872;SDS011;73966;47.438;18.912;2024-02-15T03:35:35;11.55;;;8.43;;
47872;SDS011;73966;47.438;18.912;2024-02-15T03:38:06;15.40;;;11.55;;
47872;SDS011;73966;47.438;18.912;2024-02-15T03:40:37;12.43;;;9.45;;
47872;SDS011;73966;47.438;18.912;2024-02-15T03:43:14;14.13;;;9.30;;
47872;SDS011;73966;47.438;18.912;2024-02-15T03:45:43;11.77;;;8.65;;
47872;SDS011;73966;47.438;18.912;2024-02-15T03:48:16;12.23;;;9.18;;
47872;SDS011;73966;47.438;18.912;2024-02-15T03:50:47;14.75;;;8.77;;
47872;SDS011;73966;47.438;18.912;2024-02-15T03:53:17;11.43;;;8.75;;
47872;SDS011;73966;47.438;18.912;2024-02-15T03:55:47;16.62;;;8.10;;
47872;SDS011;73966;47.438;18.912;2024-02-15T03:58:21;14.68;;;8.15;;
47872;SDS011;73966;47.438;18.912;2024-02-15T04:00:50;10.55;;;8.60;;
47872;SDS011;73966;47.438;18.912;2024-02-15T04:05:59;16.77;;;11.43;;
47872;SDS011;73966;47.438;18.912;2024-02-15T04:08:30;15.95;;;10.27;;
47872;SDS011;73966;47.438;18.912;2024-02-15T04:11:00;13.88;;;9.82;;
47872;SDS011;73966;47.438;18.912;2024-02-15T04:13:29;14.43;;;10.98;;
47872;SDS011;73966;47.438;18.912;2024-02-15T04:16:00;17.80;;;9.75;;
47872;SDS011;73966;47.438;18.912;2024-02-15T04:18:33;12.68;;;9.27;;
47872;SDS011;73966;47.438;18.912;2024-02-15T04:21:02;11.77;;;7.75;;
47872;SDS011;73966;47.438;18.912;2024-02-15T04:23:33;11.85;;;7.57;;
47872;SDS011;73966;47.438;18.912;2024-02-15T04:26:04;12.30;;;7.68;;
47872;SDS011;73966;47.438;18.912;2024-02-15T04:28:33;9.02;;;7.87;;
47872;SDS011;73966;47.438;18.912;2024-02-15T04:31:02;10.82;;;8.60;;
47872;SDS011;73966;47.438;18.912;2024-02-15T04:33:35;15.07;;;8.60;;
47872;SDS011;73966;47.438;18.912;2024-02-15T04:36:05;11.73;;;8.18;;
47872;SDS011;73966;47.438;18.912;2024-02-15T04:38:34;12.45;;;7.32;;
47872;SDS011;73966;47.438;18.912;2024-02-15T04:41:05;10.55;;;7.65;;
47872;SDS011;73966;47.438;18.912;2024-02-15T04:43:37;18.73;;;11.57;;
47872;SDS011;73966;47.438;18.912;2024-02-15T04:46:08;22.10;;;10.80;;
47872;SDS011;73966;47.438;18.912;2024-02-15T04:48:42;15.32;;;12.13;;
47872;SDS011;73966;47.438;18.912;2024-02-15T04:51:12;15.30;;;11.40;;
47872;SDS011;73966;47.438;18.912;2024-02-15T04:53:41;20.08;;;13.73;;
47872;SDS011;73966;47.438;18.912;2024-02-15T04:56:12;24.10;;;14.85;;
47872;SDS011;73966;47.438;18.912;2024-02-15T04:58:42;22.52;;;14.70;;
47872;SDS011;73966;47.438;18.912;2024-02-15T05:01:15;19.80;;;12.82;;
47872;SDS011;73966;47.438;18.912;2024-02-15T05:03:45;16.02;;;10.55;;
47872;SDS011;73966;47.438;18.912;2024-02-15T05:06:14;13.40;;;9.68;;
47872;SDS011;73966;47.438;18.912;2024-02-15T05:08:43;15.70;;;8.77;;
47872;SDS011;73966;47.438;18.912;2024-02-15T05:11:16;11.90;;;9.10;;
47872;SDS011;73966;47.438;18.912;2024-02-15T05:13:51;11.95;;;8.70;;
47872;SDS011;73966;47.438;18.912;2024-02-15T05:16:21;14.27;;;9.80;;
47872;SDS011;73966;47.438;18.912;2024-02-15T05:18:50;16.00;;;8.63;;
47872;SDS011;73966;47.438;18.912;2024-02-15T05:21:19;12.13;;;8.65;;
47872;SDS011;73966;47.438;18.912;2024-02-15T05:23:49;12.52;;;7.97;;
47872;SDS011;73966;47.438;18.912;2024-02-15T05:26:21;18.45;;;8.60;;
47872;SDS011;73966;47.438;18.912;2024-02-15T05:28:54;11.63;;;7.47;;
47872;SDS011;73966;47.438;18.912;2024-02-15T05:31:23;8.73;;;6.50;;
47872;SDS011;73966;47.438;18.912;2024-02-15T05:36:29;12.20;;;7.32;;
47872;SDS011;73966;47.438;18.912;2024-02-15T05:38:58;10.25;;;7.43;;
47872;SDS011;73966;47.438;18.912;2024-02-15T05:41:32;11.27;;;7.93;;
47872;SDS011;73966;47.438;18.912;2024-02-15T05:44:02;12.07;;;8.13;;
47872;SDS011;73966;47.438;18.912;2024-02-15T05:46:34;12.23;;;7.70;;
47872;SDS011;73966;47.438;18.912;2024-02-15T05:49:05;11.23;;;6.62;;
47872;SDS011;73966;47.438;18.912;2024-02-15T05:51:36;9.60;;;7.18;;
47872;SDS011;73966;47.438;18.912;2024-02-15T05:54:06;13.13;;;8.15;;
47872;SDS011;73966;47.438;18.912;2024-02-15T05:56:41;17.27;;;7.20;;
47872;SDS011;73966;47.438;18.912;2024-02-15T05:59:11;12.40;;;7.68;;
47872;SDS011;73966;47.438;18.912;2024-02-15T06:01:43;12.40;;;8.00;;
47872;SDS011;73966;47.438;18.912;2024-02-15T06:04:13;15.95;;;7.87;;
47872;SDS011;73966;47.438;18.912;2024-02-15T06:06:42;12.68;;;8.50;;
47872;SDS011;73966;47.438;18.912;2024-02-15T06:09:17;10.07;;;7.68;;
47872;SDS011;73966;47.438;18.912;2024-02-15T06:11:51;13.38;;;9.40;;
47872;SDS011;73966;47.438;18.912;2024-02-15T06:14:23;11.45;;;9.35;;
47872;SDS011;73966;47.438;18.912;2024-02-15T06:16:52;18.12;;;12.27;;
47872;SDS011;73966;47.438;18.912;2024-02-15T06:22:00;15.38;;;10.88;;
47872;SDS011;73966;47.438;18.912;2024-02-15T06:24:29;18.62;;;10.23;;
47872;SDS011;73966;47.438;18.912;2024-02-15T06:27:00;15.23;;;10.82;;
47872;SDS011;73966;47.438;18.912;2024-02-15T06:29:29;14.52;;;9.63;;
47872;SDS011;73966;47.438;18.912;2024-02-15T06:32:18;16.17;;;10.52;;
47872;SDS011;73966;47.438;18.912;2024-02-15T06:38:10;31.77;;;16.87;;
47872;SDS011;73966;47.438;18.912;2024-02-15T06:40:57;27.60;;;19.75;;
47872;SDS011;73966;47.438;18.912;2024-02-15T06:43:28;30.75;;;20.40;;
47872;SDS011;73966;47.438;18.912;2024-02-15T06:45:58;29.15;;;19.98;;
47872;SDS011;73966;47.438;18.912;2024-02-15T06:48:27;25.35;;;18.50;;
47872;SDS011;73966;47.438;18.912;2024-02-15T06:50:56;25.83;;;13.77;;
47872;SDS011;73966;47.438;18.912;2024-02-15T06:53:26;18.50;;;11.30;;
47872;SDS011;73966;47.438;18.912;2024-02-15T06:55:55;12.80;;;9.55;;
47872;SDS011;73966;47.438;18.912;2024-02-15T06:58:25;17.73;;;9.90;;
47872;SDS011;73966;47.438;18.912;2024-02-15T07:00:56;14.00;;;10.55;;
47872;SDS011;73966;47.438;18.912;2024-02-15T07:03:28;16.65;;;11.57;;
47872;SDS011;73966;47.438;18.912;2024-02-15T07:06:00;17.05;;;11.98;;
47872;SDS011;73966;47.438;18.912;2024-02-15T07:08:31;26.55;;;14.75;;
47872;SDS011;73966;47.438;18.912;2024-02-15T07:11:00;21.25;;;13.98;;
47872;SDS011;73966;47.438;18.912;2024-02-15T07:13:31;24.87;;;18.60;;
47872;SDS011;73966;47.438;18.912;2024-02-15T07:16:02;28.98;;;18.23;;
47872;SDS011;73966;47.438;18.912;2024-02-15T07:18:35;28.30;;;18.98;;
47872;SDS011;73966;47.438;18.912;2024-02-15T07:21:05;23.60;;;19.83;;
47872;SDS011;73966;47.438;18.912;2024-02-15T07:23:39;28.85;;;21.27;;
47872;SDS011;73966;47.438;18.912;2024-02-15T07:26:09;32.03;;;19.45;;
47872;SDS011;73966;47.438;18.912;2024-02-15T07:28:40;31.17;;;20.60;;
47872;SDS011;73966;47.438;18.912;2024-02-15T07:31:10;27.67;;;22.50;;
47872;SDS011;73966;47.438;18.912;2024-02-15T07:33:40;33.03;;;22.02;;
47872;SDS011;73966;47.438;18.912;2024-02-15T07:36:11;37.63;;;24.50;;
47872;SDS011;73966;47.438;18.912;2024-02-15T07:38:41;43.00;;;25.00;;
47872;SDS011;73966;47.438;18.912;2024-02-15T07:41:13;34.50;;;24.73;;
47872;SDS011;73966;47.438;18.912;2024-02-15T07:43:43;37.05;;;26.12;;
47872;SDS011;73966;47.438;18.912;2024-02-15T07:46:16;36.45;;;28.02;;
47872;SDS011;73966;47.438;18.912;2024-02-15T07:48:45;45.70;;;27.87;;
47872;SDS011;73966;47.438;18.912;2024-02-15T07:51:16;44.17;;;30.88;;
47872;SDS011;73966;47.438;18.912;2024-02-15T07:53:47;41.37;;;30.10;;
47872;SDS011;73966;47.438;18.912;2024-02-15T07:56:18;48.50;;;32.15;;
47872;SDS011;73966;47.438;18.912;2024-02-15T07:58:48;50.85;;;31.70;;
47872;SDS011;73966;47.438;18.912;2024-02-15T08:01:22;44.40;;;32.17;;
47872;SDS011;73966;47.438;18.912;2024-02-15T08:03:52;42.83;;;33.30;;
47872;SDS011;73966;47.438;18.912;2024-02-15T08:06:22;44.97;;;32.53;;
47872;SDS011;73966;47.438;18.912;2024-02-15T08:08:56;42.10;;;32.13;;
47872;SDS011;73966;47.438;18.912;2024-02-15T08:11:25;48.40;;;35.95;;
47872;SDS011;73966;47.438;18.912;2024-02-15T08:13:54;40.45;;;31.80;;
47872;SDS011;73966;47.438;18.912;2024-02-15T08:16:28;39.90;;;30.55;;
47872;SDS011;73966;47.438;18.912;2024-02-15T08:18:57;50.85;;;32.75;;
47872;SDS011;73966;47.438;18.912;2024-02-15T08:21:29;41.28;;;32.30;;
47872;SDS011;73966;47.438;18.912;2024-02-15T08:24:00;46.10;;;33.00;;
47872;SDS011;73966;47.438;18.912;2024-02-15T08:26:35;38.83;;;29.80;;
47872;SDS011;73966;47.438;18.912;2024-02-15T08:29:05;44.20;;;32.50;;
47872;SDS011;73966;47.438;18.912;2024-02-15T08:31:36;49.08;;;34.50;;
47872;SDS011;73966;47.438;18.912;2024-02-15T08:34:05;56.15;;;38.75;;
47872;SDS011;73966;47.438;18.912;2024-02-15T08:36:38;48.08;;;35.75;;
47872;SDS011;73966;47.438;18.912;2024-02-15T08:39:08;65.05;;;34.78;;
47872;SDS011;73966;47.438;18.912;2024-02-15T08:41:40;52.58;;;35.85;;
47872;SDS011;73966;47.438;18.912;2024-02-15T08:44:09;50.95;;;34.25;;
47872;SDS011;73966;47.438;18.912;2024-02-15T08:46:44;43.10;;;31.73;;
47872;SDS011;73966;47.438;18.912;2024-02-15T08:49:16;46.00;;;33.90;;
47872;SDS011;73966;47.438;18.912;2024-02-15T08:51:46;46.20;;;31.85;;
47872;SDS011;73966;47.438;18.912;2024-02-15T08:54:15;46.08;;;32.75;;
47872;SDS011;73966;47.438;18.912;2024-02-15T08:56:44;41.80;;;31.40;;
47872;SDS011;73966;47.438;18.912;2024-02-15T08:59:14;42.42;;;32.20;;
47872;SDS011;73966;47.438;18.912;2024-02-15T09:01:46;40.92;;;30.80;;
47872;SDS011;73966;47.438;18.912;2024-02-15T09:04:15;61.70;;;32.70;;
47872;SDS011;73966;47.438;18.912;2024-02-15T09:06:44;43.33;;;31.83;;
47872;SDS011;73966;47.438;18.912;2024-02-15T09:09:13;55.03;;;32.58;;
47872;SDS011;73966;47.438;18.912;2024-02-15T09:11:43;40.33;;;32.17;;
47872;SDS011;73966;47.438;18.912;2024-02-15T09:14:12;52.38;;;33.58;;
47872;SDS011;73966;47.438;18.912;2024-02-15T09:16:41;52.62;;;32.33;;
47872;SDS011;73966;47.438;18.912;2024-02-15T09:19:12;40.30;;;30.48;;
47872;SDS011;73966;47.438;18.912;2024-02-15T09:21:42;43.65;;;31.90;;
47872;SDS011;73966;47.438;18.912;2024-02-15T09:24:11;43.25;;;31.73;;
47872;SDS011;73966;47.438;18.912;2024-02-15T09:26:40;40.75;;;30.98;;
47872;SDS011;73966;47.438;18.912;2024-02-15T09:29:09;43.67;;;31.12;;
47872;SDS011;73966;47.438;18.912;2024-02-15T09:31:40;40.60;;;30.75;;
47872;SDS011;73966;47.438;18.912;2024-02-15T09:34:12;35.20;;;30.08;;
47872;SDS011;73966;47.438;18.912;2024-02-15T09:36:43;40.83;;;29.58;;
47872;SDS011;73966;47.438;18.912;2024-02-15T09:39:13;38.80;;;30.62;;
47872;SDS011;73966;47.438;18.912;2024-02-15T09:41:43;43.38;;;32.30;;
47872;SDS011;73966;47.438;18.912;2024-02-15T09:44:12;40.38;;;31.08;;
47872;SDS011;73966;47.438;18.912;2024-02-15T09:46:42;40.20;;;30.98;;
47872;SDS011;73966;47.438;18.912;2024-02-15T09:49:15;43.33;;;32.60;;
47872;SDS011;73966;47.438;18.912;2024-02-15T09:51:52;39.85;;;29.60;;
47872;SDS011;73966;47.438;18.912;2024-02-15T09:54:22;42.25;;;28.75;;
47872;SDS011;73966;47.438;18.912;2024-02-15T09:56:52;39.72;;;31.15;;
47872;SDS011;73966;47.438;18.912;2024-02-15T09:59:22;41.53;;;32.10;;
47872;SDS011;73966;47.438;18.912;2024-02-15T10:01:51;46.78;;;29.98;;
47872;SDS011;73966;47.438;18.912;2024-02-15T10:04:27;41.70;;;31.83;;
47872;SDS011;73966;47.438;18.912;2024-02-15T10:07:00;39.53;;;31.33;;
47872;SDS011;73966;47.438;18.912;2024-02-15T10:09:30;45.90;;;33.35;;
47872;SDS011;73966;47.438;18.912;2024-02-15T10:11:59;51.78;;;32.03;;
47872;SDS011;73966;47.438;18.912;2024-02-15T10:14:29;54.33;;;33.17;;
47872;SDS011;73966;47.438;18.912;2024-02-15T10:17:05;42.80;;;32.72;;
47872;SDS011;73966;47.438;18.912;2024-02-15T10:19:38;43.35;;;32.17;;
47872;SDS011;73966;47.438;18.912;2024-02-15T10:22:14;44.47;;;32.35;;
47872;SDS011;73966;47.438;18.912;2024-02-15T10:24:43;48.95;;;32.75;;
47872;SDS011;73966;47.438;18.912;2024-02-15T10:27:13;44.90;;;32.75;;
47872;SDS011;73966;47.438;18.912;2024-02-15T10:29:52;46.47;;;32.92;;
47872;SDS011;73966;47.438;18.912;2024-02-15T10:32:21;44.25;;;30.85;;
47872;SDS011;73966;47.438;18.912;2024-02-15T10:34:52;41.70;;;31.87;;
47872;SDS011;73966;47.438;18.912;2024-02-15T10:37:25;46.65;;;34.53;;
47872;SDS011;73966;47.438;18.912;2024-02-15T10:40:03;44.35;;;30.52;;
47872;SDS011;73966;47.438;18.912;2024-02-15T10:42:35;55.08;;;31.17;;
47872;SDS011;73966;47.438;18.912;2024-02-15T10:45:05;44.90;;;29.27;;
47872;SDS011;73966;47.438;18.912;2024-02-15T10:47:40;39.50;;;31.85;;
47872;SDS011;73966;47.438;18.912;2024-02-15T10:50:12;37.80;;;29.48;;
47872;SDS011;73966;47.438;18.912;2024-02-15T10:52:55;44.42;;;33.17;;
47872;SDS011;73966;47.438;18.912;2024-02-15T10:55:39;40.15;;;30.73;;
47872;SDS011;73966;47.438;18.912;2024-02-15T10:58:16;34.25;;;28.25;;
47872;SDS011;73966;47.438;18.912;2024-02-15T11:00:51;38.40;;;27.37;;
47872;SDS011;73966;47.438;18.912;2024-02-15T11:03:26;38.05;;;28.70;;
47872;SDS011;73966;47.438;18.912;2024-02-15T11:06:02;36.35;;;25.90;;
47872;SDS011;73966;47.438;18.912;2024-02-15T11:08:36;38.75;;;25.30;;
47872;SDS011;73966;47.438;18.912;2024-02-15T11:11:07;33.42;;;24.95;;
47872;SDS011;73966;47.438;18.912;2024-02-15T11:13:39;30.52;;;24.23;;
47872;SDS011;73966;47.438;18.912;2024-02-15T11:16:10;35.10;;;27.05;;
47872;SDS011;73966;47.438;18.912;2024-02-15T11:19:02;35.30;;;25.23;;
47872;SDS011;73966;47.438;18.912;2024-02-15T11:24:37;41.33;;;27.48;;
47872;SDS011;73966;47.438;18.912;2024-02-15T11:27:23;33.58;;;26.95;;
47872;SDS011;73966;47.438;18.912;2024-02-15T11:29:56;34.10;;;26.45;;
47872;SDS011;73966;47.438;18.912;2024-02-15T11:32:38;35.13;;;26.77;;
47872;SDS011;73966;47.438;18.912;2024-02-15T11:35:12;36.58;;;26.30;;
47872;SDS011;73966;47.438;18.912;2024-02-15T11:43:45;32.92;;;26.40;;
47872;SDS011;73966;47.438;18.912;2024-02-15T11:46:25;35.42;;;25.17;;
47872;SDS011;73966;47.438;18.912;2024-02-15T11:48:58;31.70;;;24.95;;
47872;SDS011;73966;47.438;18.912;2024-02-15T11:51:32;46.55;;;24.48;;
47872;SDS011;73966;47.438;18.912;2024-02-15T11:54:09;36.50;;;25.37;;
47872;SDS011;73966;47.438;18.912;2024-02-15T11:56:52;34.13;;;27.10;;
47872;SDS011;73966;47.438;18.912;2024-02-15T11:59:44;29.63;;;22.55;;
47872;SDS011;73966;47.438;18.912;2024-02-15T12:02:43;31.83;;;24.17;;
47872;SDS011;73966;47.438;18.912;2024-02-15T12:05:30;31.85;;;22.52;;
47872;SDS011;73966;47.438;18.912;2024-02-15T12:08:17;35.67;;;25.50;;
47872;SDS011;73966;47.438;18.912;2024-02-15T12:14:16;31.52;;;25.40;;
47872;SDS011;73966;47.438;18.912;2024-02-15T12:17:03;29.17;;;23.05;;
47872;SDS011;73966;47.438;18.912;2024-02-15T12:19:52;37.55;;;23.50;;
47872;SDS011;73966;47.438;18.912;2024-02-15T12:22:24;36.58;;;24.00;;
47872;SDS011;73966;47.438;18.912;2024-02-15T12:24:57;27.92;;;21.92;;
47872;SDS011;73966;47.438;18.912;2024-02-15T12:27:29;33.92;;;23.90;;
47872;SDS011;73966;47.438;18.912;2024-02-15T12:29:58;28.33;;;24.77;;
47872;SDS011;73966;47.438;18.912;2024-02-15T12:32:28;32.28;;;22.02;;
47872;SDS011;73966;47.438;18.912;2024-02-15T12:35:09;34.67;;;23.05;;
47872;SDS011;73966;47.438;18.912;2024-02-15T12:37:40;33.55;;;22.90;;
47872;SDS011;73966;47.438;18.912;2024-02-15T12:40:10;33.65;;;24.92;;
47872;SDS011;73966;47.438;18.912;2024-02-15T12:42:45;27.65;;;22.13;;
47872;SDS011;73966;47.438;18.912;2024-02-15T12:45:16;27.20;;;21.95;;
47872;SDS011;73966;47.438;18.912;2024-02-15T12:47:49;33.15;;;23.65;;
47872;SDS011;73966;47.438;18.912;2024-02-15T12:50:20;26.75;;;22.30;;
47872;SDS011;73966;47.438;18.912;2024-02-15T12:52:51;34.63;;;23.35;;
47872;SDS011;73966;47.438;18.912;2024-02-15T12:55:25;32.42;;;22.85;;
47872;SDS011;73966;47.438;18.912;2024-02-15T12:57:56;31.08;;;23.08;;
47872;SDS011;73966;47.438;18.912;2024-02-15T13:00:26;32.58;;;22.70;;
47872;SDS011;73966;47.438;18.912;2024-02-15T13:02:57;25.50;;;19.98;;
47872;SDS011;73966;47.438;18.912;2024-02-15T13:05:27;31.02;;;21.02;;
47872;SDS011;73966;47.438;18.912;2024-02-15T13:07:57;24.60;;;19.33;;
47872;SDS011;73966;47.438;18.912;2024-02-15T13:10:27;35.78;;;21.15;;
47872;SDS011;73966;47.438;18.912;2024-02-15T13:12:58;25.23;;;18.90;;
47872;SDS011;73966;47.438;18.912;2024-02-15T13:15:29;28.95;;;19.73;;
47872;SDS011;73966;47.438;18.912;2024-02-15T13:20:33;20.50;;;15.57;;
47872;SDS011;73966;47.438;18.912;2024-02-15T13:23:05;24.65;;;16.75;;
47872;SDS011;73966;47.438;18.912;2024-02-15T13:25:43;21.73;;;17.08;;
47872;SDS011;73966;47.438;18.912;2024-02-15T13:28:14;21.58;;;16.65;;
47872;SDS011;73966;47.438;18.912;2024-02-15T13:31:01;19.12;;;16.08;;
47872;SDS011;73966;47.438;18.912;2024-02-15T13:33:30;20.73;;;16.73;;
47872;SDS011;73966;47.438;18.912;2024-02-15T13:36:01;22.23;;;16.15;;
47872;SDS011;73966;47.438;18.912;2024-02-15T13:38:32;24.02;;;18.17;;
47872;SDS011;73966;47.438;18.912;2024-02-15T13:41:01;22.75;;;17.37;;
47872;SDS011;73966;47.438;18.912;2024-02-15T13:43:32;25.70;;;17.37;;
47872;SDS011;73966;47.438;18.912;2024-02-15T13:46:02;31.73;;;18.17;;
47872;SDS011;73966;47.438;18.912;2024-02-15T13:48:32;26.17;;;19.37;;
47872;SDS011;73966;47.438;18.912;2024-02-15T13:51:01;30.35;;;21.20;;
47872;SDS011;73966;47.438;18.912;2024-02-15T13:53:31;33.40;;;22.90;;
47872;SDS011;73966;47.438;18.912;2024-02-15T13:56:03;32.00;;;21.80;;
47872;SDS011;73966;47.438;18.912;2024-02-15T13:58:34;29.33;;;20.80;;
47872;SDS011;73966;47.438;18.912;2024-02-15T14:01:03;30.20;;;21.60;;
47872;SDS011;73966;47.438;18.912;2024-02-15T14:03:34;31.70;;;22.55;;
47872;SDS011;73966;47.438;18.912;2024-02-15T14:06:03;23.55;;;20.00;;
47872;SDS011;73966;47.438;18.912;2024-02-15T14:08:33;25.60;;;21.87;;
47872;SDS011;73966;47.438;18.912;2024-02-15T14:11:02;29.85;;;22.23;;
47872;SDS011;73966;47.438;18.912;2024-02-15T14:13:33;28.50;;;23.55;;
47872;SDS011;73966;47.438;18.912;2024-02-15T14:16:04;31.05;;;22.92;;
47872;SDS011;73966;47.438;18.912;2024-02-15T14:18:35;26.20;;;19.92;;
47872;SDS011;73966;47.438;18.912;2024-02-15T14:21:05;25.70;;;19.65;;
47872;SDS011;73966;47.438;18.912;2024-02-15T14:23:38;28.92;;;19.73;;
47872;SDS011;73966;47.438;18.912;2024-02-15T14:26:07;24.90;;;16.83;;
47872;SDS011;73966;47.438;18.912;2024-02-15T14:28:38;25.73;;;19.17;;
47872;SDS011;73966;47.438;18.912;2024-02-15T14:31:10;29.12;;;20.62;;
47872;SDS011;73966;47.438;18.912;2024-02-15T14:33:57;29.00;;;19.73;;
47872;SDS011;73966;47.438;18.912;2024-02-15T14:36:28;29.37;;;20.80;;
47872;SDS011;73966;47.438;18.912;2024-02-15T14:38:57;31.58;;;21.83;;
47872;SDS011;73966;47.438;18.912;2024-02-15T14:41:26;30.00;;;22.77;;
47872;SDS011;73966;47.438;18.912;2024-02-15T14:44:01;26.62;;;21.90;;
47872;SDS011;73966;47.438;18.912;2024-02-15T14:46:32;23.05;;;19.12;;
47872;SDS011;73966;47.438;18.912;2024-02-15T14:49:03;25.45;;;19.15;;
47872;SDS011;73966;47.438;18.912;2024-02-15T14:51:34;28.40;;;23.77;;
47872;SDS011;73966;47.438;18.912;2024-02-15T14:54:07;32.67;;;25.60;;
47872;SDS011;73966;47.438;18.912;2024-02-15T14:56:36;29.45;;;21.00;;
47872;SDS011;73966;47.438;18.912;2024-02-15T14:59:06;30.08;;;23.33;;
47872;SDS011;73966;47.438;18.912;2024-02-15T15:01:37;31.52;;;27.37;;
47872;SDS011;73966;47.438;18.912;2024-02-15T15:04:08;33.50;;;24.83;;
47872;SDS011;73966;47.438;18.912;2024-02-15T15:06:39;30.48;;;21.62;;
47872;SDS011;73966;47.438;18.912;2024-02-15T15:09:31;28.62;;;22.02;;
47872;SDS011;73966;47.438;18.912;2024-02-15T15:12:18;28.35;;;22.05;;
47872;SDS011;73966;47.438;18.912;2024-02-15T15:15:11;24.20;;;21.30;;